Time;durP1;ratioP1;P1;durP2;ratioP2;P2;SDS_P1;SDS_P2;PMS_P1;PMS_P2;Temp;Humidity;BMP_temperature;BMP_pressure;BME280_temperature;BME280_humidity;BME280_pressure;Samples;Min_cycle;Max_cycle;Signal;HPM_P1;HPM_P2
2022/02/13 00:01:13;;;;;;;75.40;36.10;;;;;;;0.88;55.53;100385.56;221181;1279;140519;-55
2022/02/13 00:06:16;;;;;;;78.10;37.10;;;;;;;0.83;55.37;100381.56;221260;1279;138915;-56
2022/02/13 00:11:19;;;;;;;79.50;36.30;;;;;;;0.76;55.38;100373.35;221291;1278;139200;-52
2022/02/13 00:16:22;;;;;;;83.60;38.00;;;;;;;0.75;55.68;100365.84;220828;1280;139534;-56
2022/02/13 00:21:25;;;;;;;77.80;38.20;;;;;;;0.75;55.69;100363.74;221397;1279;140865;-51
2022/02/13 00:26:28;;;;;;;79.80;38.10;;;;;;;0.75;55.85;100359.56;221281;1278;139059;-54
2022/02/13 00:31:31;;;;;;;77.30;36.90;;;;;;;0.69;55.87;100354.33;221352;1279;139549;-55
2022/02/13 00:36:34;;;;;;;80.80;38.40;;;;;;;0.64;55.95;100359.05;221391;1279;140813;-56
2022/02/13 00:41:37;;;;;;;78.80;37.60;;;;;;;0.57;55.95;100359.58;221123;1279;139828;-51
2022/02/13 00:46:41;;;;;;;79.80;37.80;;;;;;;0.52;55.93;100354.33;221349;1278;139738;-58
2022/02/13 00:51:44;;;;;;;79.60;37.90;;;;;;;0.48;56.09;100347.34;221515;1279;139211;-50
2022/02/13 00:56:47;;;;;;;76.20;37.90;;;;;;;0.46;56.28;100343.50;221327;1278;139795;-51
2022/02/13 01:01:50;;;;;;;79.00;38.70;;;;;;;0.48;56.45;100337.73;221192;1280;139506;-57
2022/02/13 01:06:53;;;;;;;76.10;37.50;;;;;;;0.46;56.41;100331.63;221340;1279;139986;-58
2022/02/13 01:11:56;;;;;;;78.50;37.80;;;;;;;0.42;56.43;100328.14;221354;1279;142021;-54
2022/02/13 01:17:01;;;;;;;86.00;39.30;;;;;;;0.37;56.47;100325.35;221379;1278;139078;-57
2022/02/13 01:22:07;;;;;;;79.70;37.60;;;;;;;0.31;56.48;100322.55;221352;1279;139856;-57
2022/02/13 01:27:10;;;;;;;80.70;37.60;;;;;;;0.27;56.79;100313.83;221141;1279;141367;-58
2022/02/13 01:32:14;;;;;;;80.20;37.40;;;;;;;0.24;56.72;100312.61;221319;1279;140710;-58
2022/02/13 01:37:17;;;;;;;82.80;37.70;;;;;;;0.20;56.73;100307.73;221282;1279;140740;-55
2022/02/13 01:42:20;;;;;;;78.30;37.40;;;;;;;0.17;56.82;100297.77;221118;1279;139209;-55
2022/02/13 01:47:23;;;;;;;74.70;36.70;;;;;;;0.17;56.88;100290.80;221139;1279;138944;-57
2022/02/13 01:52:26;;;;;;;78.20;36.70;;;;;;;0.16;57.00;100278.39;221339;1279;139529;-57
2022/02/13 01:57:29;;;;;;;76.40;37.50;;;;;;;0.14;57.00;100266.89;221227;1279;138920;-56
2022/02/13 02:02:32;;;;;;;82.30;37.20;;;;;;;0.12;56.86;100261.82;221146;1279;139451;-55
2022/02/13 02:07:35;;;;;;;76.40;35.50;;;;;;;0.09;57.09;100259.39;221322;1278;140211;-56
2022/02/13 02:12:39;;;;;;;80.20;36.60;;;;;;;0.11;57.25;100258.34;221329;1279;139060;-50
2022/02/13 02:17:42;;;;;;;68.60;35.30;;;;;;;0.10;57.24;100253.45;221341;1280;139493;-55
2022/02/13 02:22:55;;;;;;;78.80;35.30;;;;;;;0.06;57.45;100247.17;221216;1279;139939;-52
2022/02/13 02:27:58;;;;;;;75.80;34.50;;;;;;;0.02;57.45;100241.77;220987;1280;141252;-54
2022/02/13 02:33:01;;;;;;;74.10;34.90;;;;;;;-0.03;57.48;100231.28;221269;1280;139200;-58
2022/02/13 02:38:04;;;;;;;76.90;36.60;;;;;;;-0.05;57.58;100228.85;221305;1279;139795;-56
2022/02/13 02:43:08;;;;;;;83.30;37.60;;;;;;;-0.06;57.56;100225.02;221255;1279;139773;-49
2022/02/13 02:48:11;;;;;;;75.00;35.70;;;;;;;-0.09;57.64;100219.79;221251;1278;139675;-51
2022/02/13 02:53:13;;;;;;;76.30;36.50;;;;;;;-0.13;57.69;100216.12;221279;1279;139914;-55
2022/02/13 02:58:16;;;;;;;73.20;35.40;;;;;;;-0.18;57.65;100215.95;221226;1280;140209;-51
2022/02/13 03:03:20;;;;;;;73.40;35.40;;;;;;;-0.18;57.97;100213.32;221412;1278;139507;-49
2022/02/13 03:08:23;;;;;;;71.70;34.60;;;;;;;-0.20;57.96;100208.61;221079;1279;139540;-52
2022/02/13 03:13:26;;;;;;;79.50;36.00;;;;;;;-0.28;57.87;100199.89;220928;1279;139470;-56
2022/02/13 03:18:30;;;;;;;77.40;37.00;;;;;;;-0.33;58.08;100194.48;221056;1279;139856;-55
2022/02/13 03:23:33;;;;;;;74.10;36.10;;;;;;;-0.36;58.09;100196.74;221238;1279;139823;-55
2022/02/13 03:28:37;;;;;;;76.60;35.70;;;;;;;-0.38;58.08;100193.08;221149;1279;139310;-49
2022/02/13 03:33:41;;;;;;;74.40;35.90;;;;;;;-0.39;58.37;100187.15;221249;1278;140295;-51
2022/02/13 03:38:44;;;;;;;72.20;36.30;;;;;;;-0.38;58.25;100184.02;221275;1279;140959;-52
2022/02/13 03:43:47;;;;;;;74.30;35.20;;;;;;;-0.42;58.46;100184.71;221307;1279;139864;-52
2022/02/13 03:48:50;;;;;;;75.10;34.20;;;;;;;-0.44;58.55;100187.33;220852;1280;139741;-50
2022/02/13 03:53:53;;;;;;;72.00;35.00;;;;;;;-0.47;58.44;100183.33;220682;1280;140958;-54
2022/02/13 03:58:56;;;;;;;72.90;34.50;;;;;;;-0.53;58.38;100177.73;221290;1279;140043;-53
2022/02/13 04:03:59;;;;;;;71.10;34.40;;;;;;;-0.59;58.48;100172.67;221285;1279;139676;-53
2022/02/13 04:09:02;;;;;;;74.40;35.90;;;;;;;-0.62;58.68;100171.45;220968;1280;139033;-58
2022/02/13 04:14:05;;;;;;;68.70;33.80;;;;;;;-0.66;58.69;100164.64;221292;1279;139893;-54
2022/02/13 04:19:08;;;;;;;72.00;35.00;;;;;;;-0.70;58.69;100159.59;221269;1279;139733;-55
2022/02/13 04:24:11;;;;;;;71.40;34.10;;;;;;;-0.69;58.83;100160.98;221270;1278;139532;-49
2022/02/13 04:29:14;;;;;;;72.20;35.40;;;;;;;-0.64;59.03;100150.71;221076;1279;139647;-55
2022/02/13 04:34:17;;;;;;;75.40;35.80;;;;;;;-0.64;59.03;100146.88;221313;1279;140162;-55
2022/02/13 04:39:20;;;;;;;77.60;35.00;;;;;;;-0.69;58.94;100141.81;221276;1280;139285;-53
2022/02/13 04:44:23;;;;;;;71.90;33.90;;;;;;;-0.74;59.10;100132.40;220924;1279;197963;-53
2022/02/13 04:49:26;;;;;;;73.00;34.60;;;;;;;-0.76;59.21;100126.64;221251;1279;139814;-51
2022/02/13 04:54:30;;;;;;;80.20;35.40;;;;;;;-0.79;59.19;100114.96;221063;1278;138791;-58
2022/02/13 04:59:35;;;;;;;73.50;34.60;;;;;;;-0.78;59.12;100111.48;221186;1279;140272;-53
2022/02/13 05:04:38;;;;;;;75.00;34.60;;;;;;;-0.80;59.22;100107.48;220848;1279;140190;-55
2022/02/13 05:09:41;;;;;;;67.70;34.30;;;;;;;-0.82;59.35;100109.39;221121;1278;139836;-49
2022/02/13 05:14:44;;;;;;;70.00;33.40;;;;;;;-0.84;59.31;100102.77;221271;1279;139530;-57
2022/02/13 05:19:48;;;;;;;70.40;33.00;;;;;;;-0.86;59.48;100100.52;221278;1279;139767;-54
2022/02/13 05:24:51;;;;;;;76.30;34.40;;;;;;;-0.91;59.34;100099.27;221126;1278;140513;-53
2022/02/13 05:29:54;;;;;;;71.30;32.30;;;;;;;-0.95;59.52;100095.96;220943;1280;145367;-51
2022/02/13 05:34:57;;;;;;;72.00;33.40;;;;;;;-0.94;59.54;100094.40;221248;1279;139650;-52
2022/02/13 05:40:00;;;;;;;70.00;33.60;;;;;;;-0.92;59.70;100088.83;221350;1279;139524;-57
2022/02/13 05:45:04;;;;;;;71.20;34.00;;;;;;;-0.92;59.60;100086.39;221223;1278;139245;-57
2022/02/13 05:50:08;;;;;;;68.70;32.60;;;;;;;-0.93;59.68;100079.59;221242;1279;139253;-56
2022/02/13 05:55:11;;;;;;;65.20;31.90;;;;;;;-0.94;59.70;100079.42;221299;1279;139088;-55
2022/02/13 06:00:14;;;;;;;72.60;33.20;;;;;;;-0.96;59.83;100070.19;221249;1278;140250;-56
2022/02/13 06:05:17;;;;;;;69.30;32.80;;;;;;;-0.98;59.94;100068.27;221131;1279;140078;-55
2022/02/13 06:10:22;;;;;;;75.10;33.00;;;;;;;-0.92;60.09;100062.87;221010;1279;140766;-52
2022/02/13 06:15:25;;;;;;;69.50;33.10;;;;;;;-0.89;59.92;100057.46;221088;1279;139688;-54
2022/02/13 06:20:29;;;;;;;73.70;32.20;;;;;;;-0.88;59.98;100054.15;221245;1279;139803;-54
2022/02/13 06:25:32;;;;;;;66.90;32.20;;;;;;;-0.89;59.89;100049.27;221275;1278;139750;-54
2022/02/13 06:30:39;;;;;;;68.80;32.60;;;;;;;-0.91;59.98;100045.80;221334;1278;139617;-55
2022/02/13 06:35:43;;;;;;;65.40;30.70;;;;;;;-0.90;60.30;100046.67;221318;1278;139965;-52
2022/02/13 06:40:46;;;;;;;67.20;31.10;;;;;;;-0.88;60.26;100041.80;221209;1279;140671;-53
2022/02/13 06:45:49;;;;;;;67.20;32.50;;;;;;;-0.87;60.24;100032.56;221343;1279;140159;-56
2022/02/13 06:50:52;;;;;;;105.30;54.90;;;;;;;-0.85;60.54;100026.29;221308;1278;139761;-51
2022/02/13 06:55:55;;;;;;;73.30;32.30;;;;;;;-0.62;61.34;100021.05;221212;1279;140076;-53
2022/02/13 07:01:00;;;;;;;73.80;33.60;;;;;;;-0.48;60.61;100014.23;221276;1279;139444;-55
2022/02/13 07:06:04;;;;;;;71.80;33.20;;;;;;;-0.40;60.71;100009.17;221320;1279;140694;-58
2022/02/13 07:11:07;;;;;;;68.70;32.20;;;;;;;-0.29;60.66;100001.64;220979;1279;139676;-54
2022/02/13 07:16:10;;;;;;;68.90;31.80;;;;;;;-0.15;60.79;99997.07;221225;1279;140096;-56
2022/02/13 07:21:13;;;;;;;63.30;32.00;;;;;;;-0.06;60.76;99990.42;221001;1279;139686;-53
2022/02/13 07:26:16;;;;;;;91.10;46.70;;;;;;;0.08;61.27;99985.47;221296;1279;141035;-51
2022/02/13 07:31:20;;;;;;;61.60;28.80;;;;;;;0.32;61.47;99982.91;221028;1280;139319;-52
2022/02/13 07:36:24;;;;;;;57.10;26.90;;;;;;;0.48;61.05;99978.98;221349;1279;138973;-55
2022/02/13 07:41:27;;;;;;;61.40;26.20;;;;;;;0.59;60.85;99977.69;221275;1278;138780;-56
2022/02/13 07:46:30;;;;;;;49.20;25.80;;;;;;;0.71;60.81;99975.17;221237;1278;140486;-57
2022/02/13 07:51:33;;;;;;;54.50;25.90;;;;;;;0.83;60.79;99975.25;221355;1277;139580;-57
2022/02/13 07:56:36;;;;;;;44.80;22.80;;;;;;;0.96;60.74;99972.55;221255;1278;141287;-55
2022/02/13 08:01:39;;;;;;;46.30;22.40;;;;;;;1.12;60.60;99974.84;220952;1279;139211;-55
2022/02/13 08:06:42;;;;;;;45.50;23.40;;;;;;;1.26;60.56;99972.45;221147;1280;138878;-52
2022/02/13 08:11:45;;;;;;;42.00;22.00;;;;;;;1.44;60.39;99965.98;221253;1278;139217;-60
2022/02/13 08:16:49;;;;;;;45.20;22.80;;;;;;;1.62;60.51;99953.54;220998;1279;138679;-58
2022/02/13 08:21:52;;;;;;;52.90;27.30;;;;;;;1.82;60.28;99950.01;221221;1279;140386;-57
2022/02/13 08:26:56;;;;;;;39.40;21.90;;;;;;;2.10;60.34;99948.27;221167;1279;138993;-59
2022/02/13 08:31:59;;;;;;;39.80;20.30;;;;;;;2.29;59.79;99945.02;220988;1279;138831;-58
2022/02/13 08:37:02;;;;;;;35.70;19.80;;;;;;;2.50;59.63;99944.20;221298;1279;160610;-57
2022/02/13 08:42:06;;;;;;;35.00;18.80;;;;;;;2.68;59.46;99940.77;221250;1279;140411;-59
2022/02/13 08:47:09;;;;;;;32.90;17.50;;;;;;;2.87;59.22;99935.76;221289;1278;139314;-58
2022/02/13 08:52:12;;;;;;;27.50;14.50;;;;;;;3.05;58.68;99923.16;221239;1279;139252;-58
2022/02/13 08:57:15;;;;;;;23.80;12.60;;;;;;;3.24;58.36;99921.98;221303;1278;140306;-56
2022/02/13 09:02:19;;;;;;;23.30;12.00;;;;;;;3.44;57.81;99918.61;221066;1278;138575;-57
2022/02/13 09:07:21;;;;;;;19.10;11.10;;;;;;;3.67;57.59;99916.08;221251;1279;139520;-57
2022/02/13 09:12:25;;;;;;;25.10;11.50;;;;;;;3.91;57.01;99917.33;221019;1278;140819;-56
2022/02/13 09:17:28;;;;;;;19.90;10.60;;;;;;;4.13;56.70;99917.23;221250;1279;138829;-57
2022/02/13 09:22:31;;;;;;;20.20;10.80;;;;;;;4.33;56.17;99917.48;221086;1278;139439;-53
2022/02/13 09:27:34;;;;;;;57.30;31.00;;;;;;;4.59;55.67;99913.73;221351;1279;138980;-56
2022/02/13 09:32:39;;;;;;;22.30;11.40;;;;;;;4.83;55.29;99907.52;220937;1278;139734;-57
2022/02/13 09:37:42;;;;;;;28.70;16.20;;;;;;;5.03;55.09;99901.40;221230;1279;139553;-56
2022/02/13 09:42:47;;;;;;;24.40;12.00;;;;;;;5.28;54.76;99896.17;221245;1279;138896;-58
2022/02/13 09:47:52;;;;;;;16.80;9.00;;;;;;;5.51;54.05;99895.54;221261;1277;139217;-57
2022/02/13 09:52:57;;;;;;;19.20;8.70;;;;;;;5.65;53.64;99895.85;221077;1279;140276;-56
2022/02/13 09:58:00;;;;;;;205.20;105.10;;;;;;;5.81;53.49;99890.45;220704;1280;139296;-58
2022/02/13 10:03:16;;;;;;;33.30;17.70;;;;;;;6.04;53.04;99885.06;220624;1280;140456;-60
2022/02/13 10:08:27;;;;;;;39.20;21.90;;;;;;;6.21;52.70;99875.38;220164;1280;139442;-57
2022/02/13 10:13:56;;;;;;;20.30;8.60;;;;;;;6.42;52.43;99872.44;220138;1281;139325;-58
2022/02/13 10:19:05;;;;;;;16.00;7.50;;;;;;;6.57;51.79;99862.95;219487;1282;138968;-55
2022/02/13 10:24:14;;;;;;;13.40;7.00;;;;;;;6.71;51.28;99854.77;220284;1279;139208;-53
2022/02/13 10:29:19;;;;;;;13.20;7.00;;;;;;;6.85;50.71;99843.19;220941;1279;138865;-55
2022/02/13 10:34:23;;;;;;;16.20;7.80;;;;;;;7.01;50.44;99833.80;221220;1279;138725;-53
2022/02/13 10:40:03;;;;;;;15.80;7.90;;;;;;;7.23;50.20;99823.19;221259;1268;138594;31
2022/02/13 10:45:27;;;;;;;13.00;6.80;;;;;;;7.51;49.73;99818.09;219620;1284;139163;-57
2022/02/13 10:50:32;;;;;;;12.60;5.80;;;;;;;7.81;49.53;99811.81;220116;1284;139395;-61
2022/02/13 10:55:37;;;;;;;16.00;7.60;;;;;;;8.10;48.78;99803.46;219763;1285;139724;-61
2022/02/13 11:00:42;;;;;;;14.50;7.40;;;;;;;8.36;48.44;99791.08;219739;1284;140583;-59
2022/02/13 11:05:45;;;;;;;18.60;9.20;;;;;;;8.62;48.18;99783.88;220016;1284;138995;-60
2022/02/13 11:10:49;;;;;;;14.00;7.50;;;;;;;8.85;47.72;99771.39;220016;1284;138793;-58
2022/02/13 11:15:53;;;;;;;12.60;7.10;;;;;;;9.03;47.19;99769.54;220089;1284;139171;-59
2022/02/13 11:20:56;;;;;;;18.40;6.70;;;;;;;9.13;46.56;99760.59;219907;1285;140350;-60
2022/02/13 11:26:02;;;;;;;14.50;6.90;;;;;;;9.29;46.21;99757.05;220046;1284;139501;-59
2022/02/13 11:31:05;;;;;;;14.80;6.20;;;;;;;9.40;45.92;99745.70;220060;1284;139375;-60
2022/02/13 11:36:12;;;;;;;12.10;5.90;;;;;;;9.42;45.53;99739.80;219976;1285;139051;-58
2022/02/13 11:41:19;;;;;;;12.20;6.50;;;;;;;9.30;44.82;99734.15;220046;1282;139061;-60
2022/02/13 11:46:33;;;;;;;11.60;6.10;;;;;;;9.23;44.54;99723.50;219817;1285;139733;-60
2022/02/13 11:51:44;;;;;;;11.00;6.60;;;;;;;9.21;44.50;99720.79;219991;1283;138977;-59
2022/02/13 11:57:11;;;;;;;16.40;6.60;;;;;;;9.21;44.05;99719.49;219932;1286;138978;-58
2022/02/13 12:02:15;;;;;;;12.70;6.90;;;;;;;9.32;43.84;99709.11;219988;1285;138693;-59
2022/02/13 12:07:22;;;;;;;12.10;6.20;;;;;;;9.47;44.05;99704.14;219905;1285;139129;-60
2022/02/13 12:12:26;;;;;;;11.60;6.50;;;;;;;9.60;43.80;99698.72;219792;1285;138879;-59
2022/02/13 12:17:30;;;;;;;13.50;6.70;;;;;;;9.85;43.72;99687.11;219755;1286;140406;-60
2022/02/13 12:22:36;;;;;;;13.40;6.40;;;;;;;10.14;43.89;99678.91;219797;1285;139215;-57
2022/02/13 12:27:42;;;;;;;27.50;13.60;;;;;;;10.29;43.56;99672.34;220013;1285;139400;-59
2022/02/13 12:32:45;;;;;;;9.90;4.90;;;;;;;10.41;42.80;99666.43;219718;1285;139482;-57
2022/02/13 12:37:50;;;;;;;7.60;4.40;;;;;;;10.50;42.41;99659.39;219695;1286;139412;-58
2022/02/13 12:42:56;;;;;;;;;;;;;;;10.62;42.15;99656.63;219239;1286;138999;-59
2022/02/13 12:48:05;;;;;;;6.70;4.40;;;;;;;10.86;43.66;99648.29;219844;1285;125067;-58
2022/02/13 12:53:10;;;;;;;8.00;4.70;;;;;;;10.98;41.81;99641.08;219804;1284;139459;-58
2022/02/13 12:58:14;;;;;;;197.30;140.30;;;;;;;11.01;41.94;99633.83;219742;1286;139421;-59
2022/02/13 13:03:19;;;;;;;13.50;7.70;;;;;;;11.15;42.35;99628.77;219891;1285;140149;-58
2022/02/13 13:08:24;;;;;;;15.90;6.30;;;;;;;11.28;41.59;99621.83;219855;1284;139395;-58
2022/02/13 13:13:27;;;;;;;10.80;4.60;;;;;;;11.47;41.38;99616.31;219796;1284;139936;-57
2022/02/13 13:18:59;;;;;;;10.20;4.30;;;;;;;11.53;40.79;99613.52;219811;1284;139159;-58
2022/02/13 13:24:06;;;;;;;6.80;4.10;;;;;;;11.65;40.37;99606.98;219858;1285;140030;-59
2022/02/13 13:29:20;;;;;;;9.00;4.20;;;;;;;11.70;39.87;99598.13;219727;1286;139777;-58
2022/02/13 13:34:25;;;;;;;8.40;4.00;;;;;;;11.76;39.77;99588.37;219891;1285;138814;-59
2022/02/13 13:39:32;;;;;;;10.20;4.10;;;;;;;11.95;39.13;99579.84;219527;1286;139149;-56
2022/02/13 13:44:35;;;;;;;9.40;4.20;;;;;;;12.04;39.00;99578.02;219869;1285;139414;-57
2022/02/13 13:49:38;;;;;;;9.20;3.90;;;;;;;12.13;38.60;99581.80;219753;1285;140013;-59
2022/02/13 13:54:41;;;;;;;11.40;5.50;;;;;;;12.12;39.82;99567.30;219785;1284;139024;-60
2022/02/13 13:59:44;;;;;;;9.50;4.20;;;;;;;12.18;38.95;99557.48;219850;1284;139572;-61
2022/02/13 14:04:48;;;;;;;11.10;4.70;;;;;;;11.91;38.26;99549.65;219514;1286;139614;-61
2022/02/13 14:09:51;;;;;;;8.50;3.80;;;;;;;11.68;37.87;99548.28;219739;1286;139094;-60
2022/02/13 14:14:58;;;;;;;7.10;4.20;;;;;;;11.44;37.69;99535.33;219773;1284;139884;-62
2022/02/13 14:20:04;;;;;;;9.50;4.50;;;;;;;11.21;37.45;99533.77;219695;1286;138923;-56
2022/02/13 14:25:08;;;;;;;8.90;4.40;;;;;;;11.00;37.46;99533.71;219670;1286;139304;-62
2022/02/13 14:30:11;;;;;;;7.80;4.10;;;;;;;10.78;37.43;99525.69;219801;1284;138884;-60
2022/02/13 14:35:15;;;;;;;9.40;4.70;;;;;;;10.54;37.05;99520.07;219651;1286;139711;-61
2022/02/13 14:40:18;;;;;;;7.20;4.30;;;;;;;10.37;37.40;99515.34;219828;1285;139471;-58
2022/02/13 14:45:21;;;;;;;8.70;4.00;;;;;;;10.21;36.96;99514.02;220018;1284;139479;-60
2022/02/13 14:50:24;;;;;;;9.70;4.10;;;;;;;10.08;37.12;99504.40;219708;1286;139077;-62
2022/02/13 14:55:28;;;;;;;6.00;3.80;;;;;;;10.02;37.00;99499.80;219823;1284;138901;-58
2022/02/13 15:00:30;;;;;;;6.80;4.10;;;;;;;9.94;36.94;99497.35;219761;1286;140050;-61
2022/02/13 15:05:34;;;;;;;10.30;4.50;;;;;;;9.86;37.23;99492.28;219838;1285;139295;-63
2022/02/13 15:10:37;;;;;;;11.70;4.90;;;;;;;9.79;37.25;99490.17;219799;1285;139154;-61
2022/02/13 15:15:44;;;;;;;105.30;75.50;;;;;;;9.70;37.09;99486.38;219865;1284;139242;-61
2022/02/13 15:20:50;;;;;;;20.60;11.20;;;;;;;9.95;38.91;99486.86;219617;1285;140074;-59
2022/02/13 15:25:54;;;;;;;12.00;5.00;;;;;;;10.10;37.74;99483.04;219712;1285;139438;-61
2022/02/13 15:30:57;;;;;;;15.60;5.50;;;;;;;9.90;37.62;99482.67;219822;1285;139114;-58
2022/02/13 15:36:00;;;;;;;19.70;6.50;;;;;;;9.63;37.54;99479.47;219914;1283;138980;-61
2022/02/13 15:41:03;;;;;;;27.60;5.70;;;;;;;9.36;37.84;99477.31;219846;1285;138976;-63
2022/02/13 15:46:07;;;;;;;41.50;13.20;;;;;;;9.10;38.29;99476.64;219952;1285;139003;-61
2022/02/13 15:51:11;;;;;;;134.30;72.80;;;;;;;9.43;39.67;99473.77;219690;1285;139356;-61
2022/02/13 15:56:14;;;;;;;32.00;8.90;;;;;;;9.33;38.82;99471.61;219716;1285;139836;-62
2022/02/13 16:01:18;;;;;;;43.40;8.10;;;;;;;9.00;38.21;99479.45;219816;1286;139264;-62
2022/02/13 16:06:21;;;;;;;22.80;6.00;;;;;;;8.58;38.26;99484.96;219841;1285;141329;-60
2022/02/13 16:11:24;;;;;;;31.70;16.70;;;;;;;8.20;38.87;99485.44;219509;1285;139436;-60
2022/02/13 16:16:27;;;;;;;28.50;6.70;;;;;;;7.98;39.62;99481.13;219764;1285;139052;-58
2022/02/13 16:21:30;;;;;;;26.20;6.90;;;;;;;7.71;39.70;99484.77;219680;1286;139408;-58
2022/02/13 16:26:35;;;;;;;23.10;7.20;;;;;;;7.40;39.86;99489.10;219303;1285;139620;-56
2022/02/13 16:31:38;;;;;;;31.10;7.00;;;;;;;7.13;40.51;99490.54;219565;1286;140137;-59
2022/02/13 16:36:42;;;;;;;26.80;6.90;;;;;;;6.84;40.44;99488.33;219668;1285;138864;-60
2022/02/13 16:41:46;;;;;;;22.80;7.10;;;;;;;6.62;40.94;99494.50;219578;1285;139461;-60
2022/02/13 16:46:49;;;;;;;35.60;8.00;;;;;;;6.40;40.97;99490.26;218669;1285;598137;-60
2022/02/13 16:51:52;;;;;;;36.10;13.50;;;;;;;6.23;41.65;99488.41;219835;1285;139764;-61
2022/02/13 16:56:58;;;;;;;41.40;9.10;;;;;;;6.15;42.64;99484.81;219429;1286;138754;-61
2022/02/13 17:02:01;;;;;;;35.20;9.00;;;;;;;5.98;42.35;99483.85;219400;1286;139298;-60
2022/02/13 17:07:04;;;;;;;45.50;10.10;;;;;;;5.76;42.38;99489.02;219878;1285;138966;-60
2022/02/13 17:12:08;;;;;;;32.20;9.40;;;;;;;5.63;42.78;99495.64;219947;1284;141082;-60
2022/02/13 17:17:11;;;;;;;30.70;8.40;;;;;;;5.51;42.66;99493.07;219932;1284;138672;-61
2022/02/13 17:22:15;;;;;;;25.10;8.90;;;;;;;5.33;42.98;99485.38;219826;1285;139623;-60
2022/02/13 17:27:19;;;;;;;31.50;10.20;;;;;;;5.17;43.43;99484.67;220008;1285;138849;-59
2022/02/13 17:32:23;;;;;;;262.20;114.30;;;;;;;5.08;43.63;99480.93;219979;1283;161330;-58
2022/02/13 17:37:26;;;;;;;50.20;19.20;;;;;;;5.18;44.68;99477.13;219405;1285;140594;-60
2022/02/13 17:42:34;;;;;;;40.80;11.20;;;;;;;5.19;44.21;99476.71;219804;1284;140545;-56
2022/02/13 17:47:37;;;;;;;66.80;34.10;;;;;;;5.04;44.90;99476.32;219706;1284;139573;-60
2022/02/13 17:52:41;;;;;;;40.90;13.60;;;;;;;5.04;45.02;99469.64;219781;1283;140693;-62
2022/02/13 17:57:48;;;;;;;44.70;11.40;;;;;;;5.02;44.45;99470.08;219933;1284;139186;-63
2022/02/13 18:02:51;;;;;;;38.00;10.60;;;;;;;4.83;44.55;99473.14;219829;1284;140301;-59
2022/02/13 18:07:56;;;;;;;23.60;11.80;;;;;;;4.67;44.75;99472.73;219624;1285;139036;-60
2022/02/13 18:12:59;;;;;;;26.80;7.60;;;;;;;4.49;45.12;99474.19;219557;1285;139174;-59
2022/02/13 18:18:05;;;;;;;27.30;9.00;;;;;;;4.29;44.99;99472.48;219767;1284;139125;-58
2022/02/13 18:23:08;;;;;;;33.20;10.80;;;;;;;4.08;45.44;99468.19;219830;1284;139918;-63
2022/02/13 18:28:11;;;;;;;34.40;10.70;;;;;;;3.94;45.75;99459.99;219494;1285;139381;-63
2022/02/13 18:33:14;;;;;;;33.80;11.70;;;;;;;3.84;45.62;99461.85;219763;1283;139000;-57
2022/02/13 18:38:17;;;;;;;69.40;27.70;;;;;;;3.76;45.77;99460.48;219791;1286;139051;-61
2022/02/13 18:43:20;;;;;;;42.80;13.80;;;;;;;3.78;46.92;99460.79;219670;1285;139565;-59
2022/02/13 18:48:24;;;;;;;35.70;11.00;;;;;;;3.89;46.77;99454.15;219864;1285;139580;-63
2022/02/13 18:53:27;;;;;;;37.40;11.30;;;;;;;3.74;46.58;99459.83;219835;1283;139761;-63
2022/02/13 18:58:30;;;;;;;37.10;11.00;;;;;;;3.56;46.71;99461.56;219839;1285;138536;-63
2022/02/13 19:03:33;;;;;;;44.00;10.30;;;;;;;3.44;46.37;99452.23;220016;1285;139263;-65
2022/02/13 19:08:37;;;;;;;42.10;11.30;;;;;;;3.41;46.29;99448.45;220014;1284;138685;-66
2022/02/13 19:13:40;;;;;;;26.20;10.50;;;;;;;3.38;46.63;99454.67;219960;1285;139678;-65
2022/02/13 19:18:45;;;;;;;23.30;9.90;;;;;;;3.42;46.59;99449.65;219902;1285;140373;-65
2022/02/13 19:23:48;;;;;;;28.00;11.30;;;;;;;3.52;45.76;99450.61;219899;1284;138410;-66
2022/02/13 19:28:53;;;;;;;45.60;13.00;;;;;;;3.71;45.27;99441.31;219549;1285;139099;-63
2022/02/13 19:33:57;;;;;;;37.20;15.50;;;;;;;3.76;45.99;99435.56;219772;1285;139062;-67
2022/02/13 19:39:02;;;;;;;57.50;18.60;;;;;;;3.56;46.46;99435.08;219867;1285;140674;-64
2022/02/13 19:44:05;;;;;;;53.20;19.70;;;;;;;3.33;46.85;99439.52;219948;1285;140685;-65
2022/02/13 19:49:09;;;;;;;57.70;21.70;;;;;;;3.12;47.01;99443.25;219717;1283;139278;-65
2022/02/13 19:54:12;;;;;;;57.10;20.40;;;;;;;2.95;47.78;99438.91;220018;1285;138915;-66
2022/02/13 19:59:16;;;;;;;48.40;17.40;;;;;;;2.86;47.72;99431.27;220057;1284;139875;-63
2022/02/13 20:04:19;;;;;;;47.30;17.30;;;;;;;2.80;47.72;99428.26;220034;1285;139651;-66
2022/02/13 20:09:22;;;;;;;43.60;17.30;;;;;;;2.75;47.79;99421.04;220184;1283;138528;-67
2022/02/13 20:14:25;;;;;;;44.00;17.60;;;;;;;2.70;48.00;99417.48;220047;1285;139023;-68
2022/02/13 20:19:28;;;;;;;49.20;18.60;;;;;;;2.66;48.23;99416.52;220025;1285;138933;-66
2022/02/13 20:24:32;;;;;;;41.30;17.40;;;;;;;2.63;48.50;99414.65;220216;1283;139099;-65
2022/02/13 20:29:35;;;;;;;44.50;16.80;;;;;;;2.56;48.80;99412.37;220039;1285;138846;-64
2022/02/13 20:34:38;;;;;;;41.30;16.30;;;;;;;2.46;48.98;99414.34;220045;1285;138543;-65
2022/02/13 20:39:41;;;;;;;43.80;14.50;;;;;;;2.40;48.93;99414.50;220148;1285;138957;-60
2022/02/13 20:44:44;;;;;;;49.20;18.60;;;;;;;2.29;48.97;99410.20;220024;1284;139273;-59
2022/02/13 20:49:47;;;;;;;45.80;17.90;;;;;;;2.21;49.46;99405.98;220032;1285;139501;-64
2022/02/13 20:54:50;;;;;;;48.50;20.40;;;;;;;2.15;49.57;99406.13;220034;1284;139277;-60
2022/02/13 20:59:53;;;;;;;58.50;20.40;;;;;;;2.08;49.58;99394.89;220078;1285;139562;-61
2022/02/13 21:04:56;;;;;;;62.00;23.30;;;;;;;2.02;49.89;99397.65;220097;1284;139473;-62
2022/02/13 21:09:59;;;;;;;61.30;23.30;;;;;;;1.99;50.05;99388.45;220202;1284;140365;-58
2022/02/13 21:15:03;;;;;;;63.00;25.90;;;;;;;1.95;50.18;99383.46;219980;1285;151293;-61
2022/02/13 21:20:11;;;;;;;55.70;25.90;;;;;;;1.89;50.26;99385.33;219631;1285;141344;-62
2022/02/13 21:25:18;;;;;;;63.30;30.20;;;;;;;1.82;50.52;99383.38;219730;1286;139276;-66
2022/02/13 21:30:21;;;;;;;61.50;29.20;;;;;;;1.78;50.65;99383.14;219685;1285;138678;-65
2022/02/13 21:35:24;;;;;;;66.20;30.60;;;;;;;1.74;50.94;99379.16;219912;1284;139167;-64
2022/02/13 21:40:28;;;;;;;67.90;30.60;;;;;;;1.70;51.10;99381.54;219695;1285;140374;-66
2022/02/13 21:45:33;;;;;;;61.20;27.80;;;;;;;1.66;51.36;99374.81;220191;1285;138905;-63
2022/02/13 21:50:37;;;;;;;73.60;31.60;;;;;;;1.61;51.51;99369.13;220017;1285;138851;-60
2022/02/13 21:55:40;;;;;;;60.40;27.40;;;;;;;1.56;51.55;99368.89;219996;1285;139531;-62
2022/02/13 22:00:43;;;;;;;67.00;29.50;;;;;;;1.52;51.43;99364.60;220076;1284;140556;-65
2022/02/13 22:05:46;;;;;;;73.10;31.00;;;;;;;1.47;51.75;99358.58;220144;1285;138969;-63
2022/02/13 22:10:50;;;;;;;53.40;23.90;;;;;;;1.43;51.84;99349.73;219859;1285;138945;-65
2022/02/13 22:15:56;;;;;;;41.30;17.90;;;;;;;1.37;51.31;99344.09;219720;1286;138449;-67
2022/02/13 22:20:59;;;;;;;41.70;17.20;;;;;;;1.35;51.04;99345.19;219673;1285;138707;-66
2022/02/13 22:26:02;;;;;;;41.50;16.70;;;;;;;1.37;51.11;99345.48;220120;1285;139429;-62
2022/02/13 22:31:07;;;;;;;42.90;18.20;;;;;;;1.34;51.20;99344.84;219951;1285;139319;-60
2022/02/13 22:36:10;;;;;;;48.40;21.90;;;;;;;1.32;51.39;99344.00;220021;1284;141159;-64
2022/02/13 22:41:13;;;;;;;60.30;25.50;;;;;;;1.30;51.59;99338.64;220003;1285;139387;-65
2022/02/13 22:46:16;;;;;;;67.60;28.70;;;;;;;1.25;51.61;99334.88;220150;1285;139135;-62
2022/02/13 22:51:19;;;;;;;73.00;30.70;;;;;;;1.22;51.76;99338.80;219792;1285;139507;-66
2022/02/13 22:56:23;;;;;;;66.80;30.70;;;;;;;1.18;51.92;99335.89;219885;1285;139198;-61